www.cux-wetter.de
Wetterdaten: Montag, 02.12.2013
Datum Zeit Temp. A. Feuchte A. Luftdruck Regen Wind Richtung Richtung Sonnenschein Solar Taupunkt Windchill Windben
02.12.2013 00:00 7,3 C 79 % 1030,5 hPa 0,0 l/m 14,8 km/h (3 Bft) N-NO 25 0 min 0 W/m 3,9 C 2,0 C 14,8 km/h (3 Bft)
02.12.2013 00:15 7,2 C 79 % 1030,5 hPa 0,0 l/m 14,3 km/h (3 Bft) NO 35 0 min 0 W/m 3,8 C 2,1 C 14,3 km/h (3 Bft)
02.12.2013 00:30 7,2 C 79 % 1030,5 hPa 0,0 l/m 14,3 km/h (3 Bft) N-NO 20 0 min 0 W/m 3,8 C 2,1 C 14,3 km/h (3 Bft)
02.12.2013 00:45 7,2 C 79 % 1030,5 hPa 0,0 l/m 15,1 km/h (3 Bft) N-NO 30 0 min 0 W/m 3,8 C 1,7 C 15,1 km/h (3 Bft)
02.12.2013 01:00 7,0 C 79 % 1030,5 hPa 0,0 l/m 11,2 km/h (2 Bft) N 5 0 min 0 W/m 3,6 C 3,5 C 11,2 km/h (2 Bft)
02.12.2013 01:15 7,0 C 79 % 1030,5 hPa 0,0 l/m 13,0 km/h (3 Bft) NO 40 0 min 0 W/m 3,6 C 2,5 C 13,0 km/h (3 Bft)
02.12.2013 01:30 6,9 C 79 % 1030,5 hPa 0,0 l/m 15,6 km/h (3 Bft) NO 35 0 min 0 W/m 3,5 C 1,1 C 15,6 km/h (3 Bft)
02.12.2013 01:45 6,8 C 80 % 1030,5 hPa 0,0 l/m 11,5 km/h (2 Bft) N-NO 25 0 min 0 W/m 3,6 C 3,1 C 11,5 km/h (2 Bft)
02.12.2013 02:00 6,8 C 80 % 1030,5 hPa 0,0 l/m 15,0 km/h (3 Bft) N-NO 30 0 min 0 W/m 3,6 C 1,3 C 15,0 km/h (3 Bft)
02.12.2013 02:15 6,6 C 80 % 1030,5 hPa 0,0 l/m 9,5 km/h (2 Bft) N-NO 25 0 min 0 W/m 3,4 C 4,2 C 9,5 km/h (2 Bft)
02.12.2013 02:30 6,5 C 80 % 1031,5 hPa 0,0 l/m 14,0 km/h (3 Bft) NO 35 0 min 0 W/m 3,3 C 1,4 C 14,0 km/h (3 Bft)
02.12.2013 02:45 6,4 C 80 % 1031,5 hPa 0,0 l/m 13,4 km/h (3 Bft) NO 35 0 min 0 W/m 3,2 C 1,6 C 13,4 km/h (3 Bft)
02.12.2013 03:00 6,3 C 80 % 1031,5 hPa 0,0 l/m 10,8 km/h (2 Bft) N-NO 30 0 min 0 W/m 3,1 C 3,0 C 10,8 km/h (2 Bft)
02.12.2013 03:15 6,2 C 81 % 1031,5 hPa 0,0 l/m 9,6 km/h (2 Bft) NO 45 0 min 0 W/m 3,2 C 3,7 C 9,6 km/h (2 Bft)
02.12.2013 03:30 6,1 C 81 % 1031,5 hPa 0,0 l/m 9,8 km/h (2 Bft) N-NO 15 0 min 0 W/m 3,1 C 3,4 C 9,8 km/h (2 Bft)
02.12.2013 03:45 6,1 C 81 % 1031,5 hPa 0,0 l/m 8,1 km/h (2 Bft) N-NO 20 0 min 0 W/m 3,1 C 4,7 C 8,1 km/h (2 Bft)
02.12.2013 04:00 5,9 C 81 % 1031,5 hPa 0,0 l/m 5,9 km/h (2 Bft) N-NO 25 0 min 0 W/m 2,9 C 5,9 C 5,9 km/h (2 Bft)
02.12.2013 04:15 5,8 C 81 % 1031,5 hPa 0,0 l/m 5,9 km/h (2 Bft) N 355 0 min 0 W/m 2,8 C 5,8 C 5,9 km/h (2 Bft)
02.12.2013 04:30 5,8 C 81 % 1031,5 hPa 0,0 l/m 5,7 km/h (2 Bft) N-NO 25 0 min 0 W/m 2,8 C 5,8 C 5,7 km/h (2 Bft)
02.12.2013 04:45 5,7 C 81 % 1031,5 hPa 0,0 l/m 5,1 km/h (1 Bft) N-NO 25 0 min 0 W/m 2,7 C 5,7 C 5,1 km/h (1 Bft)
02.12.2013 05:00 5,7 C 81 % 1031,5 hPa 0,0 l/m 4,1 km/h (1 Bft) NO 35 0 min 0 W/m 2,7 C 5,7 C 4,1 km/h (1 Bft)
02.12.2013 05:15 5,3 C 81 % 1031,5 hPa 0,0 l/m 0,3 km/h (0 Bft) NO 35 0 min 0 W/m 2,3 C 5,3 C 0,3 km/h (0 Bft)
02.12.2013 05:30 5,2 C 82 % 1031,5 hPa 0,0 l/m 0,0 km/h (0 Bft) NO 35 0 min 0 W/m 2,4 C 5,2 C 0,0 km/h (0 Bft)
02.12.2013 05:45 4,9 C 81 % 1031,5 hPa 0,0 l/m 0,0 km/h (0 Bft) NO 35 0 min 0 W/m 1,9 C 4,9 C 0,0 km/h (0 Bft)
02.12.2013 06:00 4,7 C 81 % 1032,5 hPa 0,0 l/m 0,0 km/h (0 Bft) NO 35 0 min 0 W/m 1,7 C 4,7 C 0,0 km/h (0 Bft)
02.12.2013 06:15 4,7 C 81 % 1032,5 hPa 0,0 l/m 0,0 km/h (0 Bft) NO 35 0 min 0 W/m 1,7 C 4,7 C 0,0 km/h (0 Bft)
02.12.2013 06:30 4,6 C 82 % 1032,5 hPa 0,0 l/m 0,0 km/h (0 Bft) NO 35 0 min 0 W/m 1,8 C 4,6 C 0,0 km/h (0 Bft)
02.12.2013 06:45 4,4 C 81 % 1032,5 hPa 0,0 l/m 0,0 km/h (0 Bft) NO 35 0 min 0 W/m 1,4 C 4,4 C 0,0 km/h (0 Bft)
02.12.2013 07:00 4,2 C 81 % 1032,5 hPa 0,0 l/m 0,0 km/h (0 Bft) NO 35 0 min 0 W/m 1,2 C 4,2 C 0,0 km/h (0 Bft)
02.12.2013 07:15 3,9 C 81 % 1032,5 hPa 0,0 l/m 0,0 km/h (0 Bft) NO 35 0 min 0 W/m 0,9 C 3,9 C 0,0 km/h (0 Bft)
02.12.2013 07:30 3,6 C 81 % 1032,5 hPa 0,0 l/m 0,0 km/h (0 Bft) NO 35 0 min 0 W/m 0,7 C 3,6 C 0,0 km/h (0 Bft)
02.12.2013 07:45 3,5 C 80 % 1032,5 hPa 0,0 l/m 0,0 km/h (0 Bft) NO 35 0 min 0 W/m 0,4 C 3,5 C 0,0 km/h (0 Bft)
02.12.2013 08:00 3,3 C 80 % 1033,5 hPa 0,0 l/m 0,0 km/h (0 Bft) NO 35 0 min 0 W/m 0,2 C 3,3 C 0,0 km/h (0 Bft)
02.12.2013 08:15 3,1 C 80 % 1033,5 hPa 0,0 l/m 0,0 km/h (0 Bft) NO 35 0 min 0 W/m -0,0 C 3,1 C 0,0 km/h (0 Bft)
02.12.2013 08:30 3,1 C 80 % 1033,5 hPa 0,0 l/m 0,0 km/h (0 Bft) NO 35 0 min 0 W/m -0,0 C 3,1 C 0,0 km/h (0 Bft)
02.12.2013 08:45 3,1 C 80 % 1033,5 hPa 0,0 l/m 0,0 km/h (0 Bft) NO 35 0 min 0 W/m -0,0 C 3,1 C 0,0 km/h (0 Bft)
02.12.2013 09:00 3,2 C 81 % 1033,5 hPa 0,0 l/m 0,0 km/h (0 Bft) NO 35 0 min 0 W/m 0,3 C 3,2 C 0,0 km/h (0 Bft)
02.12.2013 09:15 3,3 C 81 % 1033,5 hPa 0,0 l/m 0,0 km/h (0 Bft) NO 35 0 min 0 W/m 0,4 C 3,3 C 0,0 km/h (0 Bft)
02.12.2013 09:30 3,3 C 81 % 1033,5 hPa 0,0 l/m 0,0 km/h (0 Bft) NO 35 0 min 0 W/m 0,4 C 3,3 C 0,0 km/h (0 Bft)
02.12.2013 09:45 3,2 C 81 % 1033,5 hPa 0,0 l/m 0,0 km/h (0 Bft) NO 35 0 min 0 W/m 0,3 C 3,2 C 0,0 km/h (0 Bft)
02.12.2013 10:00 3,5 C 81 % 1033,5 hPa 0,0 l/m 0,0 km/h (0 Bft) NO 35 0 min 0 W/m 0,6 C 3,5 C 0,0 km/h (0 Bft)
02.12.2013 10:15 3,9 C 81 % 1033,5 hPa 0,0 l/m 0,0 km/h (0 Bft) NO 35 0 min 0 W/m 0,9 C 3,9 C 0,0 km/h (0 Bft)
02.12.2013 10:30 4,0 C 81 % 1033,5 hPa 0,0 l/m 0,0 km/h (0 Bft) NO 35 0 min 0 W/m 1,0 C 4,0 C 0,0 km/h (0 Bft)
02.12.2013 10:45 4,5 C 82 % 1033,5 hPa 0,0 l/m 0,0 km/h (0 Bft) NO 35 0 min 0 W/m 1,7 C 4,5 C 0,0 km/h (0 Bft)
02.12.2013 11:00 5,1 C 82 % 1034,5 hPa 0,0 l/m 0,1 km/h (0 Bft) NO 35 0 min 0 W/m 2,3 C 5,1 C 0,1 km/h (0 Bft)
02.12.2013 11:15 5,5 C 82 % 1034,5 hPa 0,0 l/m 0,0 km/h (0 Bft) NO 35 0 min 0 W/m 2,7 C 5,5 C 0,0 km/h (0 Bft)
02.12.2013 11:30 6,0 C 82 % 1034,5 hPa 0,0 l/m 1,5 km/h (1 Bft) NO 35 0 min 0 W/m 3,2 C 6,0 C 1,5 km/h (1 Bft)
02.12.2013 11:45 6,1 C 82 % 1033,5 hPa 0,0 l/m 4,2 km/h (1 Bft) NO 35 0 min 0 W/m 3,3 C 6,1 C 4,2 km/h (1 Bft)
02.12.2013 12:00 6,3 C 82 % 1033,5 hPa 0,0 l/m 3,2 km/h (1 Bft) NO 35 0 min 0 W/m 3,5 C 6,3 C 3,2 km/h (1 Bft)
02.12.2013 12:15 6,6 C 82 % 1033,5 hPa 0,0 l/m 3,4 km/h (1 Bft) NO 35 0 min 0 W/m 3,8 C 6,6 C 3,4 km/h (1 Bft)
02.12.2013 12:30 6,6 C 82 % 1033,5 hPa 0,0 l/m 3,6 km/h (1 Bft) NO 35 0 min 0 W/m 3,8 C 6,6 C 3,6 km/h (1 Bft)
02.12.2013 12:45 6,6 C 82 % 1033,5 hPa 0,0 l/m 0,3 km/h (0 Bft) NO 35 0 min 0 W/m 3,8 C 6,6 C 0,3 km/h (0 Bft)
02.12.2013 13:00 6,7 C 82 % 1033,5 hPa 0,0 l/m 6,1 km/h (2 Bft) NO 35 0 min 0 W/m 3,8 C 6,7 C 6,1 km/h (2 Bft)
02.12.2013 13:15 6,8 C 82 % 1033,5 hPa 0,0 l/m 4,2 km/h (1 Bft) NO 35 0 min 0 W/m 3,9 C 6,8 C 4,2 km/h (1 Bft)
02.12.2013 13:30 7,0 C 81 % 1033,5 hPa 0,0 l/m 3,9 km/h (1 Bft) NO 35 0 min 0 W/m 4,0 C 7,0 C 3,9 km/h (1 Bft)
02.12.2013 13:45 6,9 C 81 % 1033,5 hPa 0,0 l/m 5,3 km/h (1 Bft) NO 35 0 min 0 W/m 3,9 C 6,9 C 5,3 km/h (1 Bft)
02.12.2013 14:00 7,0 C 81 % 1033,5 hPa 0,0 l/m 4,2 km/h (1 Bft) NO 35 0 min 0 W/m 4,0 C 7,0 C 4,2 km/h (1 Bft)
02.12.2013 14:14 6,9 C 81 % 1033,5 hPa 0,0 l/m 5,2 km/h (1 Bft) NO 35 0 min 0 W/m 3,9 C 6,9 C 5,2 km/h (1 Bft)
02.12.2013 14:30 7,0 C 81 % 1033,5 hPa 0,0 l/m 4,5 km/h (1 Bft) NO 35 0 min 0 W/m 4,0 C 7,0 C 4,5 km/h (1 Bft)
02.12.2013 14:45 7,2 C 81 % 1033,5 hPa 0,0 l/m 4,2 km/h (1 Bft) NO 35 0 min 0 W/m 4,2 C 7,2 C 4,2 km/h (1 Bft)
02.12.2013 15:00 7,0 C 81 % 1033,5 hPa 0,0 l/m 0,0 km/h (0 Bft) NO 35 0 min 0 W/m 4,0 C 7,0 C 0,0 km/h (0 Bft)
02.12.2013 15:15 6,5 C 81 % 1033,5 hPa 0,0 l/m 0,0 km/h (0 Bft) NO 35 0 min 0 W/m 3,5 C 6,5 C 0,0 km/h (0 Bft)
02.12.2013 15:30 6,1 C 81 % 1033,5 hPa 0,0 l/m 0,0 km/h (0 Bft) NO 35 0 min 0 W/m 3,1 C 6,1 C 0,0 km/h (0 Bft)
02.12.2013 15:45 5,7 C 81 % 1033,5 hPa 0,0 l/m 0,0 km/h (0 Bft) NO 35 0 min 0 W/m 2,7 C 5,7 C 0,0 km/h (0 Bft)
02.12.2013 16:00 5,5 C 81 % 1033,5 hPa 0,0 l/m 0,0 km/h (0 Bft) NO 35 0 min 0 W/m 2,5 C 5,5 C 0,0 km/h (0 Bft)
02.12.2013 16:15 5,2 C 81 % 1033,5 hPa 0,0 l/m 1,2 km/h (1 Bft) NO 35 0 min 0 W/m 2,2 C 5,2 C 1,2 km/h (1 Bft)
02.12.2013 16:30 4,9 C 81 % 1033,5 hPa 0,0 l/m 0,0 km/h (0 Bft) NO 35 0 min 0 W/m 1,9 C 4,9 C 0,0 km/h (0 Bft)
02.12.2013 16:45 4,7 C 81 % 1033,5 hPa 0,0 l/m 0,0 km/h (0 Bft) NO 35 0 min 0 W/m 1,7 C 4,7 C 0,0 km/h (0 Bft)
02.12.2013 17:00 4,5 C 81 % 1033,5 hPa 0,0 l/m 0,0 km/h (0 Bft) NO 35 0 min 0 W/m 1,5 C 4,5 C 0,0 km/h (0 Bft)
02.12.2013 17:15 4,7 C 82 % 1033,5 hPa 0,0 l/m 0,0 km/h (0 Bft) NO 35 0 min 0 W/m 1,9 C 4,7 C 0,0 km/h (0 Bft)
02.12.2013 17:30 4,4 C 81 % 1033,5 hPa 0,0 l/m 0,0 km/h (0 Bft) NO 35 0 min 0 W/m 1,4 C 4,4 C 0,0 km/h (0 Bft)
02.12.2013 17:45 4,2 C 81 % 1033,5 hPa 0,0 l/m 0,0 km/h (0 Bft) NO 35 0 min 0 W/m 1,2 C 4,2 C 0,0 km/h (0 Bft)
02.12.2013 18:00 4,0 C 81 % 1033,5 hPa 0,0 l/m 0,0 km/h (0 Bft) NO 35 0 min 0 W/m 1,0 C 4,0 C 0,0 km/h (0 Bft)
02.12.2013 18:15 3,9 C 81 % 1032,5 hPa 0,0 l/m 0,0 km/h (0 Bft) NO 35 0 min 0 W/m 0,9 C 3,9 C 0,0 km/h (0 Bft)
02.12.2013 18:30 3,8 C 81 % 1032,5 hPa 0,0 l/m 0,0 km/h (0 Bft) NO 35 0 min 0 W/m 0,8 C 3,8 C 0,0 km/h (0 Bft)
02.12.2013 18:45 3,7 C 81 % 1032,5 hPa 0,0 l/m 0,7 km/h (0 Bft) S-SO 160 0 min 0 W/m 0,7 C 3,7 C 0,7 km/h (0 Bft)
02.12.2013 19:00 3,8 C 82 % 1032,5 hPa 0,0 l/m 3,9 km/h (1 Bft) S-SO 160 0 min 0 W/m 1,0 C 3,8 C 3,9 km/h (1 Bft)
02.12.2013 19:15 3,7 C 82 % 1032,5 hPa 0,0 l/m 0,2 km/h (0 Bft) S-SO 160 0 min 0 W/m 0,9 C 3,7 C 0,2 km/h (0 Bft)
02.12.2013 19:30 3,5 C 82 % 1032,5 hPa 0,0 l/m 2,5 km/h (1 Bft) S-SO 160 0 min 0 W/m 0,7 C 3,5 C 2,5 km/h (1 Bft)
02.12.2013 19:45 3,3 C 82 % 1032,5 hPa 0,0 l/m 0,0 km/h (0 Bft) S-SO 160 0 min 0 W/m 0,5 C 3,3 C 0,0 km/h (0 Bft)
02.12.2013 20:00 3,2 C 82 % 1032,5 hPa 0,0 l/m 0,0 km/h (0 Bft) S-SO 160 0 min 0 W/m 0,4 C 3,2 C 0,0 km/h (0 Bft)
02.12.2013 20:15 2,9 C 82 % 1032,5 hPa 0,0 l/m 0,0 km/h (0 Bft) S-SO 160 0 min 0 W/m 0,1 C 2,9 C 0,0 km/h (0 Bft)
02.12.2013 20:30 2,9 C 82 % 1032,5 hPa 0,0 l/m 0,0 km/h (0 Bft) S-SO 160 0 min 0 W/m 0,1 C 2,9 C 0,0 km/h (0 Bft)
02.12.2013 20:45 2,7 C 81 % 1032,5 hPa 0,0 l/m 0,0 km/h (0 Bft) S-SO 160 0 min 0 W/m -0,2 C 2,7 C 0,0 km/h (0 Bft)
02.12.2013 21:00 2,7 C 81 % 1032,5 hPa 0,0 l/m 0,0 km/h (0 Bft) S-SO 160 0 min 0 W/m -0,2 C 2,7 C 0,0 km/h (0 Bft)
02.12.2013 21:15 2,5 C 81 % 1031,5 hPa 0,0 l/m 0,0 km/h (0 Bft) S-SO 160 0 min 0 W/m -0,4 C 2,5 C 0,0 km/h (0 Bft)
02.12.2013 21:30 2,3 C 81 % 1031,5 hPa 0,0 l/m 0,0 km/h (0 Bft) S-SO 160 0 min 0 W/m -0,6 C 2,3 C 0,0 km/h (0 Bft)
02.12.2013 21:45 2,2 C 81 % 1031,5 hPa 0,0 l/m 0,0 km/h (0 Bft) S-SO 160 0 min 0 W/m -0,7 C 2,2 C 0,0 km/h (0 Bft)
02.12.2013 22:00 2,1 C 81 % 1031,5 hPa 0,0 l/m 0,0 km/h (0 Bft) S-SO 160 0 min 0 W/m -0,8 C 2,1 C 0,0 km/h (0 Bft)
02.12.2013 22:15 2,2 C 81 % 1031,5 hPa 0,0 l/m 0,0 km/h (0 Bft) S-SO 160 0 min 0 W/m -0,7 C 2,2 C 0,0 km/h (0 Bft)
02.12.2013 22:30 2,2 C 81 % 1031,5 hPa 0,0 l/m 0,0 km/h (0 Bft) S-SO 160 0 min 0 W/m -0,7 C 2,2 C 0,0 km/h (0 Bft)
02.12.2013 22:45 2,0 C 81 % 1031,5 hPa 0,0 l/m 3,1 km/h (1 Bft) S-SO 160 0 min 0 W/m -0,9 C 2,0 C 3,1 km/h (1 Bft)
02.12.2013 23:00 2,0 C 82 % 1031,5 hPa 0,0 l/m 4,5 km/h (1 Bft) S-SO 160 0 min 0 W/m -0,7 C 2,0 C 4,5 km/h (1 Bft)
02.12.2013 23:15 2,0 C 82 % 1031,5 hPa 0,0 l/m 6,5 km/h (2 Bft) S-SO 160 0 min 0 W/m -0,7 C 1,9 C 6,5 km/h (2 Bft)
02.12.2013 23:30 1,9 C 82 % 1031,5 hPa 0,0 l/m 7,7 km/h (2 Bft) S 175 0 min 0 W/m -0,8 C 0,6 C 7,7 km/h (2 Bft)
02.12.2013 23:45 1,9 C 82 % 1031,5 hPa 0,0 l/m 7,3 km/h (2 Bft) S-SW 200 0 min 0 W/m -0,8 C 1,0 C 7,3 km/h (2 Bft)
_ Min-Zeit 23:30 00:00 00:00 - 05:30 - - - - 22:45 23:30 05:30
Minimum _ 1,9 C 79 % 1030,5 hPa - 0,0 km/h (0 Bft) - - - - -0,9 C 0,6 C 0,0 km/h (0 Bft)
_ Max-Zeit 00:00 05:30 11:00 00:00 01:30 - - 00:00 00:00 14:45 14:45 01:30
Maximum _ 7,3 C 82 % 1034,5 hPa 0,0 l/m 15,6 km/h
NO (3 Bft)
- - 0 min 0 W/m 4,2 C 7,2 C 15,6 km/h
NO (3 Bft)
Durchschnitt _ 4,8 C 81 % 1032,5 hPa #0,0 l/m 3,2 km/h (1 Bft) NO - #0 min. 0 W/m 1,8 C 4,1 C 3,2 km/h (1 Bft)
copyright by Holger Just